sensor_id;sensor_type;location;lat;lon;timestamp;temperature;humidity
37456;DHT22;23316;50.718;7.328;2023-05-10T00:00:39;16.70;65.00
37456;DHT22;23316;50.718;7.328;2023-05-10T00:03:06;16.70;64.90
37456;DHT22;23316;50.718;7.328;2023-05-10T00:05:34;16.70;64.60
37456;DHT22;23316;50.718;7.328;2023-05-10T00:08:01;16.70;64.60
37456;DHT22;23316;50.718;7.328;2023-05-10T00:10:29;16.70;64.70
37456;DHT22;23316;50.718;7.328;2023-05-10T00:12:57;16.70;64.80
37456;DHT22;23316;50.718;7.328;2023-05-10T00:15:24;16.70;64.80
37456;DHT22;23316;50.718;7.328;2023-05-10T00:17:51;16.70;64.80
37456;DHT22;23316;50.718;7.328;2023-05-10T00:20:18;16.70;64.60
37456;DHT22;23316;50.718;7.328;2023-05-10T00:22:46;16.70;64.60
37456;DHT22;23316;50.718;7.328;2023-05-10T00:25:13;16.70;64.60
37456;DHT22;23316;50.718;7.328;2023-05-10T00:27:42;16.70;64.60
37456;DHT22;23316;50.718;7.328;2023-05-10T00:30:09;16.70;64.50
37456;DHT22;23316;50.718;7.328;2023-05-10T00:32:37;16.70;64.50
37456;DHT22;23316;50.718;7.328;2023-05-10T00:35:05;16.70;64.50
37456;DHT22;23316;50.718;7.328;2023-05-10T00:37:32;16.70;64.40
37456;DHT22;23316;50.718;7.328;2023-05-10T00:39:59;16.70;64.50
37456;DHT22;23316;50.718;7.328;2023-05-10T00:42:26;16.60;64.40
37456;DHT22;23316;50.718;7.328;2023-05-10T00:44:55;16.70;64.50
37456;DHT22;23316;50.718;7.328;2023-05-10T00:47:23;16.70;64.60
37456;DHT22;23316;50.718;7.328;2023-05-10T00:49:51;16.70;64.60
37456;DHT22;23316;50.718;7.328;2023-05-10T00:52:19;16.70;64.60
37456;DHT22;23316;50.718;7.328;2023-05-10T00:54:46;16.70;64.50
37456;DHT22;23316;50.718;7.328;2023-05-10T00:57:14;16.70;65.20
37456;DHT22;23316;50.718;7.328;2023-05-10T00:59:41;16.70;64.50
37456;DHT22;23316;50.718;7.328;2023-05-10T01:02:11;16.70;64.50
37456;DHT22;23316;50.718;7.328;2023-05-10T01:04:39;16.70;64.60
37456;DHT22;23316;50.718;7.328;2023-05-10T01:07:06;16.70;64.60
37456;DHT22;23316;50.718;7.328;2023-05-10T01:09:34;16.70;64.60
37456;DHT22;23316;50.718;7.328;2023-05-10T01:12:01;16.70;64.60
37456;DHT22;23316;50.718;7.328;2023-05-10T01:14:30;16.70;64.50
37456;DHT22;23316;50.718;7.328;2023-05-10T01:16:57;16.80;64.60
37456;DHT22;23316;50.718;7.328;2023-05-10T01:19:27;16.70;64.40
37456;DHT22;23316;50.718;7.328;2023-05-10T01:22:01;16.80;64.50
37456;DHT22;23316;50.718;7.328;2023-05-10T01:24:46;16.80;64.40
37456;DHT22;23316;50.718;7.328;2023-05-10T01:27:41;16.80;64.40
37456;DHT22;23316;50.718;7.328;2023-05-10T01:30:35;16.80;64.30
37456;DHT22;23316;50.718;7.328;2023-05-10T01:33:11;16.80;64.30
37456;DHT22;23316;50.718;7.328;2023-05-10T01:35:46;16.80;64.20
37456;DHT22;23316;50.718;7.328;2023-05-10T01:38:18;16.80;64.10
37456;DHT22;23316;50.718;7.328;2023-05-10T01:40:57;16.80;64.10
37456;DHT22;23316;50.718;7.328;2023-05-10T01:43:32;16.80;64.10
37456;DHT22;23316;50.718;7.328;2023-05-10T01:46:03;16.80;64.10
37456;DHT22;23316;50.718;7.328;2023-05-10T01:48:42;16.80;64.10
37456;DHT22;23316;50.718;7.328;2023-05-10T01:51:13;16.70;64.10
37456;DHT22;23316;50.718;7.328;2023-05-10T01:53:42;16.70;64.10
37456;DHT22;23316;50.718;7.328;2023-05-10T01:56:11;16.70;64.10
37456;DHT22;23316;50.718;7.328;2023-05-10T01:58:40;16.70;64.40
37456;DHT22;23316;50.718;7.328;2023-05-10T02:01:12;16.70;64.20
37456;DHT22;23316;50.718;7.328;2023-05-10T02:03:43;16.70;64.20
37456;DHT22;23316;50.718;7.328;2023-05-10T02:06:10;16.70;64.20
37456;DHT22;23316;50.718;7.328;2023-05-10T02:08:40;16.70;64.20
37456;DHT22;23316;50.718;7.328;2023-05-10T02:11:08;16.70;64.30
37456;DHT22;23316;50.718;7.328;2023-05-10T02:13:37;16.70;64.30
37456;DHT22;23316;50.718;7.328;2023-05-10T02:16:06;16.60;64.30
37456;DHT22;23316;50.718;7.328;2023-05-10T02:18:35;16.60;64.40
37456;DHT22;23316;50.718;7.328;2023-05-10T02:21:04;16.60;64.50
37456;DHT22;23316;50.718;7.328;2023-05-10T02:23:32;16.60;64.60
37456;DHT22;23316;50.718;7.328;2023-05-10T02:26:00;16.60;64.60
37456;DHT22;23316;50.718;7.328;2023-05-10T02:28:29;16.60;64.70
37456;DHT22;23316;50.718;7.328;2023-05-10T02:30:57;16.60;64.80
37456;DHT22;23316;50.718;7.328;2023-05-10T02:33:25;16.60;64.70
37456;DHT22;23316;50.718;7.328;2023-05-10T02:35:53;16.60;64.70
37456;DHT22;23316;50.718;7.328;2023-05-10T02:38:23;16.60;64.70
37456;DHT22;23316;50.718;7.328;2023-05-10T02:40:51;16.50;64.60
37456;DHT22;23316;50.718;7.328;2023-05-10T02:43:21;16.50;64.50
37456;DHT22;23316;50.718;7.328;2023-05-10T02:45:49;16.60;65.30
37456;DHT22;23316;50.718;7.328;2023-05-10T02:48:17;16.50;64.50
37456;DHT22;23316;50.718;7.328;2023-05-10T02:50:45;16.50;64.60
37456;DHT22;23316;50.718;7.328;2023-05-10T02:53:16;16.50;64.60
37456;DHT22;23316;50.718;7.328;2023-05-10T02:55:50;16.50;64.60
37456;DHT22;23316;50.718;7.328;2023-05-10T02:58:18;16.50;64.60
37456;DHT22;23316;50.718;7.328;2023-05-10T03:00:46;16.50;64.60
37456;DHT22;23316;50.718;7.328;2023-05-10T03:03:14;16.50;64.60
37456;DHT22;23316;50.718;7.328;2023-05-10T03:05:41;16.40;64.60
37456;DHT22;23316;50.718;7.328;2023-05-10T03:08:08;16.40;64.60
37456;DHT22;23316;50.718;7.328;2023-05-10T03:10:43;16.40;64.60
37456;DHT22;23316;50.718;7.328;2023-05-10T03:13:31;16.40;64.70
37456;DHT22;23316;50.718;7.328;2023-05-10T03:16:06;16.40;64.80
37456;DHT22;23316;50.718;7.328;2023-05-10T03:18:41;16.40;64.80
37456;DHT22;23316;50.718;7.328;2023-05-10T03:21:11;16.40;64.80
37456;DHT22;23316;50.718;7.328;2023-05-10T03:23:43;16.40;64.80
37456;DHT22;23316;50.718;7.328;2023-05-10T03:26:15;16.40;64.90
37456;DHT22;23316;50.718;7.328;2023-05-10T03:28:45;16.40;64.90
37456;DHT22;23316;50.718;7.328;2023-05-10T03:31:14;16.40;65.00
37456;DHT22;23316;50.718;7.328;2023-05-10T03:33:46;16.40;65.00
37456;DHT22;23316;50.718;7.328;2023-05-10T03:36:14;16.40;65.10
37456;DHT22;23316;50.718;7.328;2023-05-10T03:38:41;16.40;65.10
37456;DHT22;23316;50.718;7.328;2023-05-10T03:41:09;16.40;65.00
37456;DHT22;23316;50.718;7.328;2023-05-10T03:43:36;16.40;65.00
37456;DHT22;23316;50.718;7.328;2023-05-10T03:46:05;16.40;65.00
37456;DHT22;23316;50.718;7.328;2023-05-10T03:48:33;16.40;65.10
37456;DHT22;23316;50.718;7.328;2023-05-10T03:51:00;16.40;65.10
37456;DHT22;23316;50.718;7.328;2023-05-10T03:53:28;16.50;65.20
37456;DHT22;23316;50.718;7.328;2023-05-10T03:55:55;16.50;65.20
37456;DHT22;23316;50.718;7.328;2023-05-10T03:58:22;16.50;65.20
37456;DHT22;23316;50.718;7.328;2023-05-10T04:00:50;16.50;65.30
37456;DHT22;23316;50.718;7.328;2023-05-10T04:03:19;16.40;65.20
37456;DHT22;23316;50.718;7.328;2023-05-10T04:05:46;16.50;65.30
37456;DHT22;23316;50.718;7.328;2023-05-10T04:08:13;16.50;65.20
37456;DHT22;23316;50.718;7.328;2023-05-10T04:10:42;16.50;65.20
37456;DHT22;23316;50.718;7.328;2023-05-10T04:13:09;16.50;65.20
37456;DHT22;23316;50.718;7.328;2023-05-10T04:15:37;16.50;65.10
37456;DHT22;23316;50.718;7.328;2023-05-10T04:18:04;16.50;65.10
37456;DHT22;23316;50.718;7.328;2023-05-10T04:20:33;16.50;65.10
37456;DHT22;23316;50.718;7.328;2023-05-10T04:23:00;16.50;65.20
37456;DHT22;23316;50.718;7.328;2023-05-10T04:25:28;16.50;65.20
37456;DHT22;23316;50.718;7.328;2023-05-10T04:27:55;16.50;65.20
37456;DHT22;23316;50.718;7.328;2023-05-10T04:30:22;16.50;65.20
37456;DHT22;23316;50.718;7.328;2023-05-10T04:32:49;16.50;65.20
37456;DHT22;23316;50.718;7.328;2023-05-10T04:35:17;16.50;65.30
37456;DHT22;23316;50.718;7.328;2023-05-10T04:37:45;16.50;65.30
37456;DHT22;23316;50.718;7.328;2023-05-10T04:40:12;16.50;65.30
37456;DHT22;23316;50.718;7.328;2023-05-10T04:42:40;16.50;65.40
37456;DHT22;23316;50.718;7.328;2023-05-10T04:45:09;16.50;65.30
37456;DHT22;23316;50.718;7.328;2023-05-10T04:47:36;16.50;65.30
37456;DHT22;23316;50.718;7.328;2023-05-10T04:50:04;16.40;65.20
37456;DHT22;23316;50.718;7.328;2023-05-10T04:52:32;16.40;65.40
37456;DHT22;23316;50.718;7.328;2023-05-10T04:55:00;16.40;65.50
37456;DHT22;23316;50.718;7.328;2023-05-10T04:57:28;16.40;65.70
37456;DHT22;23316;50.718;7.328;2023-05-10T04:59:55;16.40;65.90
37456;DHT22;23316;50.718;7.328;2023-05-10T05:02:22;16.40;66.00
37456;DHT22;23316;50.718;7.328;2023-05-10T05:04:49;16.40;66.10
37456;DHT22;23316;50.718;7.328;2023-05-10T05:07:16;16.40;66.20
37456;DHT22;23316;50.718;7.328;2023-05-10T05:09:44;16.40;66.20
37456;DHT22;23316;50.718;7.328;2023-05-10T05:12:12;16.40;66.20
37456;DHT22;23316;50.718;7.328;2023-05-10T05:14:40;16.40;66.20
37456;DHT22;23316;50.718;7.328;2023-05-10T05:17:08;16.40;66.20
37456;DHT22;23316;50.718;7.328;2023-05-10T05:19:35;16.40;66.20
37456;DHT22;23316;50.718;7.328;2023-05-10T05:22:02;16.40;66.30
37456;DHT22;23316;50.718;7.328;2023-05-10T05:24:34;16.40;66.40
37456;DHT22;23316;50.718;7.328;2023-05-10T05:27:02;16.40;66.50
37456;DHT22;23316;50.718;7.328;2023-05-10T05:29:31;16.40;66.50
37456;DHT22;23316;50.718;7.328;2023-05-10T05:31:58;16.50;66.60
37456;DHT22;23316;50.718;7.328;2023-05-10T05:34:25;16.50;66.70
37456;DHT22;23316;50.718;7.328;2023-05-10T05:36:52;16.50;66.70
37456;DHT22;23316;50.718;7.328;2023-05-10T05:39:20;16.50;66.80
37456;DHT22;23316;50.718;7.328;2023-05-10T05:41:47;16.50;66.80
37456;DHT22;23316;50.718;7.328;2023-05-10T05:44:14;16.60;66.90
37456;DHT22;23316;50.718;7.328;2023-05-10T05:46:43;16.60;66.70
37456;DHT22;23316;50.718;7.328;2023-05-10T05:49:10;16.60;66.70
37456;DHT22;23316;50.718;7.328;2023-05-10T05:51:38;16.70;66.70
37456;DHT22;23316;50.718;7.328;2023-05-10T05:54:05;16.70;66.60
37456;DHT22;23316;50.718;7.328;2023-05-10T05:56:32;16.70;66.60
37456;DHT22;23316;50.718;7.328;2023-05-10T05:58:59;16.80;66.70
37456;DHT22;23316;50.718;7.328;2023-05-10T06:01:27;16.80;66.70
37456;DHT22;23316;50.718;7.328;2023-05-10T06:03:55;16.80;66.70
37456;DHT22;23316;50.718;7.328;2023-05-10T06:06:23;16.90;66.80
37456;DHT22;23316;50.718;7.328;2023-05-10T06:08:50;16.90;66.70
37456;DHT22;23316;50.718;7.328;2023-05-10T06:11:17;16.90;66.60
37456;DHT22;23316;50.718;7.328;2023-05-10T06:13:44;16.90;66.60
37456;DHT22;23316;50.718;7.328;2023-05-10T06:16:12;17.00;66.60
37456;DHT22;23316;50.718;7.328;2023-05-10T06:18:39;17.00;66.40
37456;DHT22;23316;50.718;7.328;2023-05-10T06:21:08;17.00;66.30
37456;DHT22;23316;50.718;7.328;2023-05-10T06:23:35;17.10;66.40
37456;DHT22;23316;50.718;7.328;2023-05-10T06:26:03;17.10;66.30
37456;DHT22;23316;50.718;7.328;2023-05-10T06:28:30;17.10;66.30
37456;DHT22;23316;50.718;7.328;2023-05-10T06:30:58;17.10;66.30
37456;DHT22;23316;50.718;7.328;2023-05-10T06:33:25;17.10;67.00
37456;DHT22;23316;50.718;7.328;2023-05-10T06:35:53;17.20;66.30
37456;DHT22;23316;50.718;7.328;2023-05-10T06:38:21;17.20;66.20
37456;DHT22;23316;50.718;7.328;2023-05-10T06:40:49;17.20;66.30
37456;DHT22;23316;50.718;7.328;2023-05-10T06:43:16;17.20;66.10
37456;DHT22;23316;50.718;7.328;2023-05-10T06:45:44;17.30;66.10
37456;DHT22;23316;50.718;7.328;2023-05-10T06:48:11;17.30;65.90
37456;DHT22;23316;50.718;7.328;2023-05-10T06:50:38;17.30;65.80
37456;DHT22;23316;50.718;7.328;2023-05-10T06:53:06;17.40;65.90
37456;DHT22;23316;50.718;7.328;2023-05-10T06:55:34;17.40;66.10
37456;DHT22;23316;50.718;7.328;2023-05-10T06:58:02;17.40;66.10
37456;DHT22;23316;50.718;7.328;2023-05-10T07:00:29;17.40;65.70
37456;DHT22;23316;50.718;7.328;2023-05-10T07:02:56;17.40;65.30
37456;DHT22;23316;50.718;7.328;2023-05-10T07:05:24;17.50;64.90
37456;DHT22;23316;50.718;7.328;2023-05-10T07:07:53;17.50;64.80
37456;DHT22;23316;50.718;7.328;2023-05-10T07:10:20;17.50;64.70
37456;DHT22;23316;50.718;7.328;2023-05-10T07:12:49;17.50;64.30
37456;DHT22;23316;50.718;7.328;2023-05-10T07:15:16;17.50;64.30
37456;DHT22;23316;50.718;7.328;2023-05-10T07:17:44;17.50;64.20
37456;DHT22;23316;50.718;7.328;2023-05-10T07:20:12;17.50;64.10
37456;DHT22;23316;50.718;7.328;2023-05-10T07:22:39;17.50;63.90
37456;DHT22;23316;50.718;7.328;2023-05-10T07:25:07;17.50;63.70
37456;DHT22;23316;50.718;7.328;2023-05-10T07:27:34;17.50;63.70
37456;DHT22;23316;50.718;7.328;2023-05-10T07:30:03;17.50;63.80
37456;DHT22;23316;50.718;7.328;2023-05-10T07:32:31;17.50;64.00
37456;DHT22;23316;50.718;7.328;2023-05-10T07:34:58;17.50;64.20
37456;DHT22;23316;50.718;7.328;2023-05-10T07:37:25;17.50;64.30
37456;DHT22;23316;50.718;7.328;2023-05-10T07:39:52;17.50;64.30
37456;DHT22;23316;50.718;7.328;2023-05-10T07:42:19;17.50;64.30
37456;DHT22;23316;50.718;7.328;2023-05-10T07:44:47;17.50;64.30
37456;DHT22;23316;50.718;7.328;2023-05-10T07:47:16;17.60;64.40
37456;DHT22;23316;50.718;7.328;2023-05-10T07:49:43;17.60;64.60
37456;DHT22;23316;50.718;7.328;2023-05-10T07:52:11;17.60;64.70
37456;DHT22;23316;50.718;7.328;2023-05-10T07:54:38;17.60;64.70
37456;DHT22;23316;50.718;7.328;2023-05-10T07:57:05;17.70;64.80
37456;DHT22;23316;50.718;7.328;2023-05-10T07:59:32;17.70;64.50
37456;DHT22;23316;50.718;7.328;2023-05-10T08:02:00;17.80;64.00
37456;DHT22;23316;50.718;7.328;2023-05-10T08:04:28;17.80;63.60
37456;DHT22;23316;50.718;7.328;2023-05-10T08:06:55;17.80;63.30
37456;DHT22;23316;50.718;7.328;2023-05-10T08:09:22;17.80;63.20
37456;DHT22;23316;50.718;7.328;2023-05-10T08:11:50;17.90;63.10
37456;DHT22;23316;50.718;7.328;2023-05-10T08:14:17;17.90;63.80
37456;DHT22;23316;50.718;7.328;2023-05-10T08:16:44;18.00;63.20
37456;DHT22;23316;50.718;7.328;2023-05-10T08:19:12;18.00;63.20
37456;DHT22;23316;50.718;7.328;2023-05-10T08:21:40;18.00;63.20
37456;DHT22;23316;50.718;7.328;2023-05-10T08:24:08;18.10;63.20
37456;DHT22;23316;50.718;7.328;2023-05-10T08:26:35;18.10;63.20
37456;DHT22;23316;50.718;7.328;2023-05-10T08:29:02;18.10;63.00
37456;DHT22;23316;50.718;7.328;2023-05-10T08:31:29;18.10;63.00
37456;DHT22;23316;50.718;7.328;2023-05-10T08:33:57;18.20;63.00
37456;DHT22;23316;50.718;7.328;2023-05-10T08:36:24;18.20;63.00
37456;DHT22;23316;50.718;7.328;2023-05-10T08:38:54;18.30;62.80
37456;DHT22;23316;50.718;7.328;2023-05-10T08:41:22;18.30;62.40
37456;DHT22;23316;50.718;7.328;2023-05-10T08:43:50;18.30;61.80
37456;DHT22;23316;50.718;7.328;2023-05-10T08:46:19;18.30;61.80
37456;DHT22;23316;50.718;7.328;2023-05-10T08:48:48;18.30;62.00
37456;DHT22;23316;50.718;7.328;2023-05-10T08:51:19;18.30;62.00
37456;DHT22;23316;50.718;7.328;2023-05-10T08:53:47;18.30;60.90
37456;DHT22;23316;50.718;7.328;2023-05-10T08:56:17;18.20;60.70
37456;DHT22;23316;50.718;7.328;2023-05-10T08:58:45;18.20;61.40
37456;DHT22;23316;50.718;7.328;2023-05-10T09:01:13;18.20;61.60
37456;DHT22;23316;50.718;7.328;2023-05-10T09:03:42;18.20;61.20
37456;DHT22;23316;50.718;7.328;2023-05-10T09:06:11;18.20;61.30
37456;DHT22;23316;50.718;7.328;2023-05-10T09:08:41;18.10;61.60
37456;DHT22;23316;50.718;7.328;2023-05-10T09:11:09;18.10;61.70
37456;DHT22;23316;50.718;7.328;2023-05-10T09:13:38;18.20;62.00
37456;DHT22;23316;50.718;7.328;2023-05-10T09:16:06;18.20;62.20
37456;DHT22;23316;50.718;7.328;2023-05-10T09:18:33;18.20;62.20
37456;DHT22;23316;50.718;7.328;2023-05-10T09:21:28;18.20;62.10
37456;DHT22;23316;50.718;7.328;2023-05-10T09:23:56;18.20;62.10
37456;DHT22;23316;50.718;7.328;2023-05-10T09:26:23;18.20;61.60
37456;DHT22;23316;50.718;7.328;2023-05-10T09:28:53;18.20;61.50
37456;DHT22;23316;50.718;7.328;2023-05-10T09:31:21;18.10;61.50
37456;DHT22;23316;50.718;7.328;2023-05-10T09:33:49;18.10;61.40
37456;DHT22;23316;50.718;7.328;2023-05-10T09:36:18;18.10;62.30
37456;DHT22;23316;50.718;7.328;2023-05-10T09:38:45;18.10;61.80
37456;DHT22;23316;50.718;7.328;2023-05-10T09:41:17;18.00;61.90
37456;DHT22;23316;50.718;7.328;2023-05-10T09:43:45;18.00;62.00
37456;DHT22;23316;50.718;7.328;2023-05-10T09:46:14;18.00;61.80
37456;DHT22;23316;50.718;7.328;2023-05-10T09:48:42;17.90;61.30
37456;DHT22;23316;50.718;7.328;2023-05-10T09:51:10;17.90;61.00
37456;DHT22;23316;50.718;7.328;2023-05-10T09:53:37;17.80;61.20
37456;DHT22;23316;50.718;7.328;2023-05-10T09:56:04;17.70;61.50
37456;DHT22;23316;50.718;7.328;2023-05-10T09:58:36;17.60;61.70
37456;DHT22;23316;50.718;7.328;2023-05-10T10:01:04;17.60;62.10
37456;DHT22;23316;50.718;7.328;2023-05-10T10:03:32;17.50;62.50
37456;DHT22;23316;50.718;7.328;2023-05-10T10:05:59;17.50;63.10
37456;DHT22;23316;50.718;7.328;2023-05-10T10:08:27;17.50;63.50
37456;DHT22;23316;50.718;7.328;2023-05-10T10:10:54;17.50;64.10
37456;DHT22;23316;50.718;7.328;2023-05-10T10:13:21;17.60;64.70
37456;DHT22;23316;50.718;7.328;2023-05-10T10:15:49;17.60;64.90
37456;DHT22;23316;50.718;7.328;2023-05-10T10:18:17;17.70;64.90
37456;DHT22;23316;50.718;7.328;2023-05-10T10:20:50;17.80;64.90
37456;DHT22;23316;50.718;7.328;2023-05-10T10:23:18;17.90;65.10
37456;DHT22;23316;50.718;7.328;2023-05-10T10:25:45;18.00;65.10
37456;DHT22;23316;50.718;7.328;2023-05-10T10:28:21;18.10;64.90
37456;DHT22;23316;50.718;7.328;2023-05-10T10:30:53;18.20;64.60
37456;DHT22;23316;50.718;7.328;2023-05-10T10:33:40;18.30;64.80
37456;DHT22;23316;50.718;7.328;2023-05-10T10:36:12;18.40;64.70
37456;DHT22;23316;50.718;7.328;2023-05-10T10:38:58;18.50;64.50
37456;DHT22;23316;50.718;7.328;2023-05-10T10:41:32;18.60;63.80
37456;DHT22;23316;50.718;7.328;2023-05-10T10:44:36;18.70;63.90
37456;DHT22;23316;50.718;7.328;2023-05-10T10:47:06;18.80;63.10
37456;DHT22;23316;50.718;7.328;2023-05-10T10:49:42;19.00;63.40
37456;DHT22;23316;50.718;7.328;2023-05-10T10:52:22;19.10;62.50
37456;DHT22;23316;50.718;7.328;2023-05-10T10:54:53;19.20;62.40
37456;DHT22;23316;50.718;7.328;2023-05-10T10:57:21;19.20;60.70
37456;DHT22;23316;50.718;7.328;2023-05-10T10:59:49;19.20;60.10
37456;DHT22;23316;50.718;7.328;2023-05-10T11:02:43;19.20;60.00
37456;DHT22;23316;50.718;7.328;2023-05-10T11:08:16;19.10;60.10
37456;DHT22;23316;50.718;7.328;2023-05-10T11:10:52;19.10;60.50
37456;DHT22;23316;50.718;7.328;2023-05-10T11:13:28;19.10;59.70
37456;DHT22;23316;50.718;7.328;2023-05-10T11:15:56;19.00;60.00
37456;DHT22;23316;50.718;7.328;2023-05-10T11:18:26;18.90;59.30
37456;DHT22;23316;50.718;7.328;2023-05-10T11:20:56;18.80;58.80
37456;DHT22;23316;50.718;7.328;2023-05-10T11:23:29;18.70;58.90
37456;DHT22;23316;50.718;7.328;2023-05-10T11:25:57;18.60;59.20
37456;DHT22;23316;50.718;7.328;2023-05-10T11:28:26;18.50;59.70
37456;DHT22;23316;50.718;7.328;2023-05-10T11:30:54;18.40;60.00
37456;DHT22;23316;50.718;7.328;2023-05-10T11:33:22;18.40;60.10
37456;DHT22;23316;50.718;7.328;2023-05-10T11:35:49;18.30;60.40
37456;DHT22;23316;50.718;7.328;2023-05-10T11:38:16;18.30;60.70
37456;DHT22;23316;50.718;7.328;2023-05-10T11:40:45;18.40;61.20
37456;DHT22;23316;50.718;7.328;2023-05-10T11:43:12;18.40;60.90
37456;DHT22;23316;50.718;7.328;2023-05-10T11:45:41;18.40;60.40
37456;DHT22;23316;50.718;7.328;2023-05-10T11:48:08;18.40;60.50
37456;DHT22;23316;50.718;7.328;2023-05-10T11:50:35;18.50;60.60
37456;DHT22;23316;50.718;7.328;2023-05-10T11:53:02;18.50;60.80
37456;DHT22;23316;50.718;7.328;2023-05-10T11:55:33;18.50;60.90
37456;DHT22;23316;50.718;7.328;2023-05-10T11:58:02;18.60;61.20
37456;DHT22;23316;50.718;7.328;2023-05-10T12:00:30;18.60;61.10
37456;DHT22;23316;50.718;7.328;2023-05-10T12:02:57;18.60;61.00
37456;DHT22;23316;50.718;7.328;2023-05-10T12:05:25;18.60;61.30
37456;DHT22;23316;50.718;7.328;2023-05-10T12:07:52;18.70;61.30
37456;DHT22;23316;50.718;7.328;2023-05-10T12:10:25;18.80;61.30
37456;DHT22;23316;50.718;7.328;2023-05-10T12:12:53;18.80;60.90
37456;DHT22;23316;50.718;7.328;2023-05-10T12:15:23;18.90;60.00
37456;DHT22;23316;50.718;7.328;2023-05-10T12:17:51;18.90;59.60
37456;DHT22;23316;50.718;7.328;2023-05-10T12:20:19;18.90;59.50
37456;DHT22;23316;50.718;7.328;2023-05-10T12:22:49;18.90;59.60
37456;DHT22;23316;50.718;7.328;2023-05-10T12:25:18;18.90;59.40
37456;DHT22;23316;50.718;7.328;2023-05-10T12:27:52;18.90;59.70
37456;DHT22;23316;50.718;7.328;2023-05-10T12:30:22;18.90;60.20
37456;DHT22;23316;50.718;7.328;2023-05-10T12:32:50;18.90;60.60
37456;DHT22;23316;50.718;7.328;2023-05-10T12:35:18;18.90;60.90
37456;DHT22;23316;50.718;7.328;2023-05-10T12:37:47;19.00;61.30
37456;DHT22;23316;50.718;7.328;2023-05-10T12:40:15;19.00;61.40
37456;DHT22;23316;50.718;7.328;2023-05-10T12:42:42;19.10;59.10
37456;DHT22;23316;50.718;7.328;2023-05-10T12:45:11;19.20;58.70
37456;DHT22;23316;50.718;7.328;2023-05-10T12:47:39;19.10;59.40
37456;DHT22;23316;50.718;7.328;2023-05-10T12:50:07;19.10;58.50
37456;DHT22;23316;50.718;7.328;2023-05-10T12:52:34;19.10;58.70
37456;DHT22;23316;50.718;7.328;2023-05-10T12:55:02;19.10;58.20
37456;DHT22;23316;50.718;7.328;2023-05-10T12:57:29;19.00;58.50
37456;DHT22;23316;50.718;7.328;2023-05-10T12:59:56;19.00;58.80
37456;DHT22;23316;50.718;7.328;2023-05-10T13:02:24;19.00;59.10
37456;DHT22;23316;50.718;7.328;2023-05-10T13:04:53;19.00;59.60
37456;DHT22;23316;50.718;7.328;2023-05-10T13:07:20;18.90;59.20
37456;DHT22;23316;50.718;7.328;2023-05-10T13:09:47;18.90;59.50
37456;DHT22;23316;50.718;7.328;2023-05-10T13:12:14;18.90;59.80
37456;DHT22;23316;50.718;7.328;2023-05-10T13:14:42;18.90;59.90
37456;DHT22;23316;50.718;7.328;2023-05-10T13:17:09;18.90;59.90
37456;DHT22;23316;50.718;7.328;2023-05-10T13:19:36;18.90;59.90
37456;DHT22;23316;50.718;7.328;2023-05-10T13:22:04;18.90;59.70
37456;DHT22;23316;50.718;7.328;2023-05-10T13:24:32;19.00;59.50
37456;DHT22;23316;50.718;7.328;2023-05-10T13:26:59;19.00;59.10
37456;DHT22;23316;50.718;7.328;2023-05-10T13:29:26;19.00;58.70
37456;DHT22;23316;50.718;7.328;2023-05-10T13:31:53;19.00;58.90
37456;DHT22;23316;50.718;7.328;2023-05-10T13:34:21;19.10;58.80
37456;DHT22;23316;50.718;7.328;2023-05-10T13:36:48;19.10;59.00
37456;DHT22;23316;50.718;7.328;2023-05-10T13:39:16;19.20;59.50
37456;DHT22;23316;50.718;7.328;2023-05-10T13:41:44;19.30;60.00
37456;DHT22;23316;50.718;7.328;2023-05-10T13:44:12;19.40;60.50
37456;DHT22;23316;50.718;7.328;2023-05-10T13:46:39;19.50;60.30
37456;DHT22;23316;50.718;7.328;2023-05-10T13:49:07;19.60;59.80
37456;DHT22;23316;50.718;7.328;2023-05-10T13:51:34;19.80;59.50
37456;DHT22;23316;50.718;7.328;2023-05-10T13:54:01;19.90;58.90
37456;DHT22;23316;50.718;7.328;2023-05-10T13:56:30;20.00;58.70
37456;DHT22;23316;50.718;7.328;2023-05-10T13:58:57;20.10;58.50
37456;DHT22;23316;50.718;7.328;2023-05-10T14:01:25;20.20;58.30
37456;DHT22;23316;50.718;7.328;2023-05-10T14:03:52;20.20;58.00
37456;DHT22;23316;50.718;7.328;2023-05-10T14:06:19;20.30;57.60
37456;DHT22;23316;50.718;7.328;2023-05-10T14:08:46;20.30;57.60
37456;DHT22;23316;50.718;7.328;2023-05-10T14:11:13;20.20;56.80
37456;DHT22;23316;50.718;7.328;2023-05-10T14:13:42;20.20;56.80
37456;DHT22;23316;50.718;7.328;2023-05-10T14:16:09;20.10;56.70
37456;DHT22;23316;50.718;7.328;2023-05-10T14:18:37;20.10;56.50
37456;DHT22;23316;50.718;7.328;2023-05-10T14:21:04;20.00;56.40
37456;DHT22;23316;50.718;7.328;2023-05-10T14:23:32;20.00;56.50
37456;DHT22;23316;50.718;7.328;2023-05-10T14:25:59;19.90;56.40
37456;DHT22;23316;50.718;7.328;2023-05-10T14:28:26;19.90;56.50
37456;DHT22;23316;50.718;7.328;2023-05-10T14:30:55;19.90;56.50
37456;DHT22;23316;50.718;7.328;2023-05-10T14:33:22;19.80;56.50
37456;DHT22;23316;50.718;7.328;2023-05-10T14:35:49;19.70;56.60
37456;DHT22;23316;50.718;7.328;2023-05-10T14:38:17;19.70;56.80
37456;DHT22;23316;50.718;7.328;2023-05-10T14:40:44;19.70;57.00
37456;DHT22;23316;50.718;7.328;2023-05-10T14:43:11;19.70;57.10
37456;DHT22;23316;50.718;7.328;2023-05-10T14:45:38;19.60;57.10
37456;DHT22;23316;50.718;7.328;2023-05-10T14:48:07;19.60;57.10
37456;DHT22;23316;50.718;7.328;2023-05-10T14:50:38;19.60;57.30
37456;DHT22;23316;50.718;7.328;2023-05-10T14:53:05;19.60;57.40
37456;DHT22;23316;50.718;7.328;2023-05-10T14:55:32;19.50;57.40
37456;DHT22;23316;50.718;7.328;2023-05-10T14:58:01;19.50;57.40
37456;DHT22;23316;50.718;7.328;2023-05-10T15:00:32;19.40;57.40
37456;DHT22;23316;50.718;7.328;2023-05-10T15:02:59;19.40;57.50
37456;DHT22;23316;50.718;7.328;2023-05-10T15:05:28;19.40;58.00
37456;DHT22;23316;50.718;7.328;2023-05-10T15:07:55;19.30;57.60
37456;DHT22;23316;50.718;7.328;2023-05-10T15:10:22;19.30;57.80
37456;DHT22;23316;50.718;7.328;2023-05-10T15:12:50;19.30;58.10
37456;DHT22;23316;50.718;7.328;2023-05-10T15:15:17;19.30;58.20
37456;DHT22;23316;50.718;7.328;2023-05-10T15:17:44;19.20;58.30
37456;DHT22;23316;50.718;7.328;2023-05-10T15:20:12;19.30;58.50
37456;DHT22;23316;50.718;7.328;2023-05-10T15:22:40;19.30;58.50
37456;DHT22;23316;50.718;7.328;2023-05-10T15:25:08;19.30;58.60
37456;DHT22;23316;50.718;7.328;2023-05-10T15:27:35;19.30;59.20
37456;DHT22;23316;50.718;7.328;2023-05-10T15:30:03;19.30;58.70
37456;DHT22;23316;50.718;7.328;2023-05-10T15:32:30;19.30;58.70
37456;DHT22;23316;50.718;7.328;2023-05-10T15:34:58;19.40;58.70
37456;DHT22;23316;50.718;7.328;2023-05-10T15:37:25;19.40;59.10
37456;DHT22;23316;50.718;7.328;2023-05-10T15:39:54;19.40;58.40
37456;DHT22;23316;50.718;7.328;2023-05-10T15:42:28;19.40;58.50